Terminal Aerodrome Forecast
Issued by NWS

Home | Current Version | Previous Version | Text Only | Print | Product List | Glossary On
Versions: 1 2 3 4 5 6 7 8 9 10 11 12 13 14 15 16 17 18 19 20 21 22 23 24
000
FTUS45 KREV 282323
TAFCXP
TAF
KCXP 282323Z 2900/2924 25014G24KT P6SM FEW130 OVC200
     FM290400 22008KT P6SM BKN200 WS020/20035KT
     FM291000 23010G18KT P6SM SCT200
     FM291700 23022G35KT P6SM SCT120 SCT180
     FM292300 25015G25KT P6SM SCT120 BKN200=

USA.gov is the U.S. government's official web portal to all federal, state and local government web resources and services.